createdAt,value
2022-07-29T00:00:21.633Z,98090.81
2022-07-29T00:01:24.416Z,98091.44
2022-07-29T00:02:33.535Z,98098.19
2022-07-29T00:03:36.411Z,98098.44
2022-07-29T00:04:43.247Z,98090.25
2022-07-29T00:05:46.141Z,98088.00
2022-07-29T00:06:48.918Z,98093.75
2022-07-29T00:07:51.625Z,98095.28
2022-07-29T00:08:54.462Z,98088.97
2022-07-29T00:09:57.347Z,98090.19
2022-07-29T00:11:00.912Z,98094.09
2022-07-29T00:12:05.728Z,98096.22
2022-07-29T00:13:08.626Z,98091.19
2022-07-29T00:14:11.488Z,98087.19
2022-07-29T00:15:14.825Z,98095.47
2022-07-29T00:16:17.652Z,98094.56
2022-07-29T00:17:20.582Z,98087.66
2022-07-29T00:18:23.282Z,98089.28
2022-07-29T00:19:26.096Z,98087.56
2022-07-29T00:20:28.883Z,98088.56
2022-07-29T00:21:31.741Z,98087.19
2022-07-29T00:22:34.425Z,98084.16
2022-07-29T00:23:37.128Z,98091.09
2022-07-29T00:24:45.791Z,98091.09
2022-07-29T00:25:48.580Z,98084.06
2022-07-29T00:26:51.454Z,98094.53
2022-07-29T00:27:54.153Z,98090.13
2022-07-29T00:29:30.710Z,98089.69
2022-07-29T00:30:19.614Z,98090.22
2022-07-29T00:31:22.379Z,98088.06
2022-07-29T00:32:25.290Z,98093.28
2022-07-29T00:33:28.097Z,98097.91
2022-07-29T00:34:50.891Z,98092.00
2022-07-29T00:35:53.661Z,98086.63
2022-07-29T00:36:58.783Z,98095.19
2022-07-29T00:38:02.152Z,98095.19
2022-07-29T00:39:04.997Z,98095.97
2022-07-29T00:40:12.008Z,98096.41
2022-07-29T00:41:14.894Z,98092.34
2022-07-29T00:42:21.967Z,98098.00
2022-07-29T00:43:25.237Z,98092.94
2022-07-29T00:44:27.984Z,98094.84
2022-07-29T00:45:31.269Z,98086.28
2022-07-29T00:46:34.212Z,98089.66
2022-07-29T00:47:36.962Z,98096.34
2022-07-29T00:48:40.193Z,98090.69
2022-07-29T00:49:43.839Z,98093.41
2022-07-29T00:50:46.913Z,98097.00
2022-07-29T00:51:50.702Z,98094.66
2022-07-29T00:52:53.975Z,98095.22
2022-07-29T00:53:57.487Z,98097.34
2022-07-29T00:55:03.645Z,98092.28
2022-07-29T00:56:09.290Z,98094.41
2022-07-29T00:57:12.934Z,98088.94
2022-07-29T00:58:16.089Z,98093.03
2022-07-29T00:59:18.943Z,98092.28
2022-07-29T01:00:24.708Z,98094.41
2022-07-29T01:01:31.833Z,98090.13
2022-07-29T01:02:34.937Z,98088.75
2022-07-29T01:03:37.812Z,98082.63
2022-07-29T01:04:41.412Z,98090.22
2022-07-29T01:05:49.993Z,98085.72
2022-07-29T01:08:03.818Z,98083.25
2022-07-29T01:09:07.809Z,98083.81
2022-07-29T01:10:11.601Z,98085.94
2022-07-29T01:11:15.190Z,98083.06
2022-07-29T01:12:24.348Z,98080.84
2022-07-29T01:13:27.749Z,98087.87
2022-07-29T01:14:31.273Z,98080.34
2022-07-29T01:15:48.892Z,98078.78
2022-07-29T01:17:11.540Z,98078.78
2022-07-29T01:18:23.179Z,98078.03
2022-07-29T01:19:32.608Z,98075.22
2022-07-29T01:20:59.554Z,98082.91
2022-07-29T01:22:27.920Z,98085.47
2022-07-29T01:23:30.665Z,98082.78
2022-07-29T01:25:14.970Z,98076.62
2022-07-29T01:26:29.616Z,98078.88
2022-07-29T01:27:40.643Z,98076.62
2022-07-29T01:29:07.547Z,98078.06
2022-07-29T01:30:11.867Z,98073.75
2022-07-29T01:31:25.387Z,98073.66
2022-07-29T01:32:32.777Z,98075.25
2022-07-29T01:33:51.887Z,98070.22
2022-07-29T01:35:14.673Z,98079.81
2022-07-29T01:36:26.795Z,98074.59
2022-07-29T01:37:46.718Z,98081.34
2022-07-29T01:38:59.974Z,98075.84
2022-07-29T01:40:05.989Z,98079.81
2022-07-29T01:41:17.852Z,98071.91
2022-07-29T01:42:52.058Z,98084.12
2022-07-29T01:44:16.631Z,98072.81
2022-07-29T01:45:44.392Z,98075.09
2022-07-29T01:46:57.338Z,98072.75
2022-07-29T01:48:28.739Z,98071.34
2022-07-29T01:49:36.842Z,98073.91
2022-07-29T01:50:48.720Z,98078.41
2022-07-29T01:52:01.069Z,98075.56
2022-07-29T01:53:08.241Z,98081.16
2022-07-29T01:54:30.275Z,98074.31
2022-07-29T01:55:38.087Z,98075.56
2022-07-29T01:56:41.858Z,98071.38
2022-07-29T01:57:49.217Z,98076.84
2022-07-29T01:58:54.258Z,98066.13
2022-07-29T01:59:59.702Z,98066.50
2022-07-29T02:01:04.106Z,98066.22
2022-07-29T02:02:13.891Z,98065.78
2022-07-29T02:03:19.659Z,98066.25
2022-07-29T02:04:33.575Z,98065.53
2022-07-29T02:05:39.005Z,98069.69
2022-07-29T02:06:45.035Z,98064.16
2022-07-29T02:07:48.927Z,98060.47
2022-07-29T02:08:53.990Z,98069.81
2022-07-29T02:09:58.332Z,98063.59
2022-07-29T02:11:03.658Z,98064.41
2022-07-29T02:12:08.600Z,98075.56
2022-07-29T02:13:14.965Z,98067.34
2022-07-29T02:14:20.444Z,98063.47
2022-07-29T02:15:26.493Z,98066.88
2022-07-29T02:16:33.353Z,98070.53
2022-07-29T02:17:57.917Z,98064.72
2022-07-29T02:19:02.843Z,98065.41
2022-07-29T02:20:06.987Z,98061.94
2022-07-29T02:21:15.540Z,98060.53
2022-07-29T02:22:20.954Z,98065.63
2022-07-29T02:23:26.192Z,98057.97
2022-07-29T02:24:32.001Z,98059.91
2022-07-29T02:25:37.287Z,98057.94
2022-07-29T02:26:44.391Z,98056.59
2022-07-29T02:27:48.265Z,98055.78
2022-07-29T02:28:55.737Z,98060.03
2022-07-29T02:30:01.855Z,98057.81
2022-07-29T02:31:05.252Z,98059.94
2022-07-29T02:32:10.949Z,98052.81
2022-07-29T02:33:15.837Z,98060.53
2022-07-29T02:34:20.688Z,98058.69
2022-07-29T02:35:24.862Z,98061.38
2022-07-29T02:36:29.157Z,98065.69
2022-07-29T02:37:33.193Z,98064.69
2022-07-29T02:38:52.841Z,98061.03
2022-07-29T02:39:56.581Z,98054.25
2022-07-29T02:41:01.542Z,98055.47
2022-07-29T02:42:11.320Z,98053.47
2022-07-29T02:43:14.354Z,98051.13
2022-07-29T02:44:20.200Z,98055.47
2022-07-29T02:45:23.264Z,98060.28
2022-07-29T02:46:32.054Z,98046.41
2022-07-29T02:48:02.003Z,98051.03
2022-07-29T02:49:30.626Z,98051.13
2022-07-29T02:50:38.826Z,98053.97
2022-07-29T02:51:46.378Z,98058.16
2022-07-29T02:52:56.552Z,98049.87
2022-07-29T02:54:07.163Z,98058.19
2022-07-29T02:55:33.585Z,98051.25
2022-07-29T02:56:38.888Z,98059.38
2022-07-29T02:57:54.399Z,98060.66
2022-07-29T02:59:03.826Z,98057.28
2022-07-29T03:00:10.118Z,98059.38
2022-07-29T03:01:21.592Z,98054.53
2022-07-29T03:02:27.165Z,98049.63
2022-07-29T03:03:40.118Z,98053.06
2022-07-29T03:04:44.917Z,98057.28
2022-07-29T03:05:47.823Z,98055.03
2022-07-29T03:06:52.196Z,98055.66
2022-07-29T03:08:02.746Z,98050.63
2022-07-29T03:09:13.224Z,98059.63
2022-07-29T03:10:17.456Z,98044.34
2022-07-29T03:11:20.678Z,98051.41
2022-07-29T03:12:44.508Z,98058.37
2022-07-29T03:13:47.828Z,98059.97
2022-07-29T03:14:50.841Z,98053.62
2022-07-29T03:15:54.980Z,98054.84
2022-07-29T03:16:58.617Z,98059.97
2022-07-29T03:18:01.996Z,98053.81
2022-07-29T03:19:05.955Z,98055.66
2022-07-29T03:20:10.188Z,98057.63
2022-07-29T03:21:13.310Z,98056.09
2022-07-29T03:22:16.296Z,98053.75
2022-07-29T03:23:24.017Z,98053.94
2022-07-29T03:24:27.551Z,98053.16
2022-07-29T03:25:30.359Z,98054.66
2022-07-29T03:26:33.180Z,98063.13
2022-07-29T03:27:35.951Z,98061.66
2022-07-29T03:28:38.664Z,98053.97
2022-07-29T03:29:43.664Z,98056.84
2022-07-29T03:30:52.574Z,98058.16
2022-07-29T03:31:55.642Z,98055.25
2022-07-29T03:32:58.750Z,98052.56
2022-07-29T03:34:01.675Z,98055.19
2022-07-29T03:35:05.332Z,98058.91
2022-07-29T03:36:08.070Z,98051.91
2022-07-29T03:37:10.954Z,98063.22
2022-07-29T03:38:13.838Z,98062.50
2022-07-29T03:39:20.768Z,98059.56
2022-07-29T03:40:33.140Z,98053.94
2022-07-29T03:41:39.963Z,98052.56
2022-07-29T03:42:44.746Z,98056.06
2022-07-29T03:43:52.853Z,98055.50
2022-07-29T03:44:58.295Z,98059.63
2022-07-29T03:46:03.226Z,98053.41
2022-07-29T03:47:08.284Z,98054.66
2022-07-29T03:48:16.723Z,98059.69
2022-07-29T03:49:21.476Z,98058.84
2022-07-29T03:50:24.565Z,98057.59
2022-07-29T03:51:33.329Z,98064.59
2022-07-29T03:52:37.265Z,98058.84
2022-07-29T03:53:40.267Z,98053.69
2022-07-29T03:54:43.284Z,98063.00
2022-07-29T03:55:55.205Z,98068.62
2022-07-29T03:57:01.016Z,98063.03
2022-07-29T03:58:04.430Z,98065.87
2022-07-29T03:59:08.206Z,98064.28
2022-07-29T04:00:11.715Z,98072.72
2022-07-29T04:01:16.659Z,98067.13
2022-07-29T04:02:22.883Z,98071.41
2022-07-29T04:03:27.664Z,98068.62
2022-07-29T04:04:33.362Z,98067.25
2022-07-29T04:05:36.230Z,98070.03
2022-07-29T04:06:41.675Z,98067.13
2022-07-29T04:07:50.703Z,98063.75
2022-07-29T04:08:56.869Z,98073.81
2022-07-29T04:09:59.655Z,98066.66
2022-07-29T04:11:03.632Z,98067.53
2022-07-29T04:12:07.038Z,98073.50
2022-07-29T04:13:09.756Z,98065.87
2022-07-29T04:14:12.748Z,98070.03
2022-07-29T04:15:15.846Z,98063.78
2022-07-29T04:16:18.654Z,98067.09
2022-07-29T04:17:21.467Z,98072.78
2022-07-29T04:18:24.983Z,98070.75
2022-07-29T04:19:27.877Z,98066.41
2022-07-29T04:20:30.783Z,98079.09
2022-07-29T04:21:41.962Z,98065.81
2022-07-29T04:22:44.650Z,98073.53
2022-07-29T04:23:53.723Z,98069.34
2022-07-29T04:25:01.696Z,98068.22
2022-07-29T04:26:06.593Z,98068.66
2022-07-29T04:27:09.292Z,98067.19
2022-07-29T04:28:12.126Z,98070.03
2022-07-29T04:29:15.647Z,98069.81
2022-07-29T04:30:18.383Z,98068.03
2022-07-29T04:31:25.501Z,98067.25
2022-07-29T04:32:28.687Z,98075.38
2022-07-29T04:33:31.433Z,98072.56
2022-07-29T04:34:34.179Z,98071.00
2022-07-29T04:35:49.891Z,98078.72
2022-07-29T04:36:56.381Z,98075.22
2022-07-29T04:37:59.085Z,98077.25
2022-07-29T04:39:02.391Z,98080.22
2022-07-29T04:40:05.861Z,98074.41
2022-07-29T04:41:09.500Z,98069.69
2022-07-29T04:42:13.849Z,98078.97
2022-07-29T04:43:16.887Z,98074.78
2022-07-29T04:44:26.570Z,98077.69
2022-07-29T04:45:31.933Z,98081.66
2022-07-29T04:46:36.090Z,98079.13
2022-07-29T04:47:39.498Z,98082.69
2022-07-29T04:48:42.340Z,98085.28
2022-07-29T04:49:45.134Z,98075.03
2022-07-29T04:50:47.781Z,98080.66
2022-07-29T04:51:50.469Z,98086.25
2022-07-29T04:52:53.132Z,98077.12
2022-07-29T04:53:55.983Z,98076.44
2022-07-29T04:54:58.728Z,98078.63
2022-07-29T04:56:01.505Z,98080.00
2022-07-29T04:57:04.279Z,98083.66
2022-07-29T04:58:07.350Z,98078.06
2022-07-29T04:59:10.193Z,98076.12
2022-07-29T05:00:16.018Z,98080.31
2022-07-29T05:01:19.222Z,98079.87
2022-07-29T05:02:23.208Z,98079.19
2022-07-29T05:03:26.412Z,98082.72
2022-07-29T05:04:29.396Z,98087.03
2022-07-29T05:05:32.664Z,98078.78
2022-07-29T05:06:35.731Z,98081.78
2022-07-29T05:07:38.802Z,98086.63
2022-07-29T05:08:41.958Z,98088.59
2022-07-29T05:09:45.467Z,98086.41
2022-07-29T05:10:48.731Z,98082.28
2022-07-29T05:11:51.652Z,98077.56
2022-07-29T05:12:54.565Z,98077.56
2022-07-29T05:13:57.597Z,98088.16
2022-07-29T05:15:00.749Z,98084.62
2022-07-29T05:16:03.879Z,98081.47
2022-07-29T05:17:07.040Z,98075.19
2022-07-29T05:18:10.283Z,98077.12
2022-07-29T05:19:14.609Z,98076.00
2022-07-29T05:20:19.711Z,98074.19
2022-07-29T05:21:22.766Z,98075.34
2022-07-29T05:22:25.910Z,98079.19
2022-07-29T05:23:28.812Z,98079.13
2022-07-29T05:24:31.827Z,98078.28
2022-07-29T05:25:43.192Z,98081.13
2022-07-29T05:26:47.510Z,98083.41
2022-07-29T05:27:51.031Z,98084.19
2022-07-29T05:28:55.179Z,98084.62
2022-07-29T05:29:58.129Z,98089.66
2022-07-29T05:31:01.227Z,98095.25
2022-07-29T05:32:05.323Z,98086.78
2022-07-29T05:33:08.394Z,98082.66
2022-07-29T05:34:32.088Z,98090.56
2022-07-29T05:35:36.271Z,98086.31
2022-07-29T05:36:39.328Z,98086.97
2022-07-29T05:37:42.452Z,98081.53
2022-07-29T05:38:45.485Z,98089.16
2022-07-29T05:39:56.381Z,98088.59
2022-07-29T05:41:00.918Z,98085.03
2022-07-29T05:42:04.035Z,98078.66
2022-07-29T05:43:07.076Z,98082.91
2022-07-29T05:44:10.310Z,98085.00
2022-07-29T05:45:13.322Z,98078.84
2022-07-29T05:46:16.757Z,98084.78
2022-07-29T05:47:20.235Z,98083.44
2022-07-29T05:48:23.496Z,98085.56
2022-07-29T05:49:30.024Z,98090.19
2022-07-29T05:50:32.961Z,98091.78
2022-07-29T05:51:36.198Z,98089.78
2022-07-29T05:52:39.282Z,98083.47
2022-07-29T05:53:42.441Z,98091.97
2022-07-29T05:54:45.622Z,98097.41
2022-07-29T05:55:49.498Z,98094.75
2022-07-29T05:56:52.535Z,98090.47
2022-07-29T05:57:55.357Z,98085.56
2022-07-29T05:58:58.446Z,98091.25
2022-07-29T06:00:01.559Z,98099.28
2022-07-29T06:01:04.791Z,98091.56
2022-07-29T06:02:07.862Z,98098.38
2022-07-29T06:03:10.858Z,98097.41
2022-07-29T06:04:14.214Z,98093.41
2022-07-29T06:05:17.708Z,98089.91
2022-07-29T06:06:20.707Z,98095.66
2022-07-29T06:08:31.773Z,98092.69
2022-07-29T06:09:36.370Z,98091.44
2022-07-29T06:10:39.561Z,98090.91
2022-07-29T06:11:43.033Z,98095.19
2022-07-29T06:12:46.203Z,98096.44
2022-07-29T06:13:49.243Z,98094.41
2022-07-29T06:14:54.332Z,98098.41
2022-07-29T06:15:57.791Z,98097.00
2022-07-29T06:17:04.021Z,98094.09
2022-07-29T06:18:11.034Z,98095.09
2022-07-29T06:19:14.214Z,98097.41
2022-07-29T06:20:17.307Z,98101.09
2022-07-29T06:21:30.324Z,98098.41
2022-07-29T06:22:33.237Z,98098.47
2022-07-29T06:23:36.228Z,98102.87
2022-07-29T06:24:42.840Z,98103.44
2022-07-29T06:25:45.985Z,98105.75
2022-07-29T06:26:48.909Z,98100.22
2022-07-29T06:27:51.865Z,98103.75
2022-07-29T06:28:54.988Z,98093.97
2022-07-29T06:29:58.096Z,98097.84
2022-07-29T06:31:01.638Z,98093.88
2022-07-29T06:32:05.177Z,98099.50
2022-07-29T06:33:08.346Z,98099.81
2022-07-29T06:34:11.393Z,98097.22
2022-07-29T06:36:39.749Z,98102.66
2022-07-29T06:37:44.270Z,98104.06
2022-07-29T06:38:51.574Z,98108.22
2022-07-29T06:40:15.105Z,98101.31
2022-07-29T06:41:18.022Z,98102.91
2022-07-29T06:42:20.982Z,98111.44
2022-07-29T06:43:24.087Z,98116.81
2022-07-29T06:44:29.596Z,98115.34
2022-07-29T06:45:35.566Z,98116.19
2022-07-29T06:46:38.713Z,98121.88
2022-07-29T06:47:41.831Z,98118.44
2022-07-29T06:48:45.719Z,98112.69
2022-07-29T06:49:52.048Z,98119.75
2022-07-29T06:50:55.219Z,98122.66
2022-07-29T06:51:58.364Z,98117.84
2022-07-29T06:53:01.352Z,98121.88
2022-07-29T06:54:06.722Z,98122.06
2022-07-29T06:55:10.118Z,98118.72
2022-07-29T06:56:29.126Z,98116.59
2022-07-29T06:57:32.479Z,98120.81
2022-07-29T06:58:36.749Z,98117.44
2022-07-29T06:59:39.751Z,98115.53
2022-07-29T07:00:43.312Z,98120.44
2022-07-29T07:01:46.694Z,98118.28
2022-07-29T07:02:49.838Z,98118.72
2022-07-29T07:03:52.888Z,98116.19
2022-07-29T07:04:55.933Z,98111.41
2022-07-29T07:05:58.844Z,98116.31
2022-07-29T07:07:03.258Z,98111.59
2022-07-29T07:08:06.552Z,98115.06
2022-07-29T07:09:09.847Z,98125.72
2022-07-29T07:10:12.875Z,98123.75
2022-07-29T07:11:15.698Z,98119.69
2022-07-29T07:12:18.638Z,98126.16
2022-07-29T07:13:21.654Z,98117.44
2022-07-29T07:14:24.709Z,98121.88
2022-07-29T07:15:39.807Z,98113.22
2022-07-29T07:16:43.563Z,98117.53
2022-07-29T07:17:46.561Z,98120.31
2022-07-29T07:18:49.575Z,98123.56
2022-07-29T07:19:52.644Z,98123.00
2022-07-29T07:20:55.651Z,98117.72
2022-07-29T07:21:58.736Z,98122.72
2022-07-29T07:23:04.847Z,98126.00
2022-07-29T07:24:08.040Z,98128.97
2022-07-29T07:25:12.390Z,98121.19
2022-07-29T07:26:15.373Z,98135.44
2022-07-29T07:27:19.225Z,98130.56
2022-07-29T07:28:24.494Z,98126.56
2022-07-29T07:29:28.120Z,98122.41
2022-07-29T07:30:31.069Z,98121.06
2022-07-29T07:31:38.386Z,98129.50
2022-07-29T07:32:41.742Z,98127.19
2022-07-29T07:33:44.842Z,98124.41
2022-07-29T07:34:47.978Z,98125.91
2022-07-29T07:35:50.888Z,98124.03
2022-07-29T07:36:53.803Z,98124.19
2022-07-29T07:38:01.024Z,98129.81
2022-07-29T07:39:04.799Z,98126.31
2022-07-29T07:40:09.939Z,98129.19
2022-07-29T07:41:12.983Z,98122.72
2022-07-29T07:42:15.886Z,98124.91
2022-07-29T07:43:18.932Z,98125.81
2022-07-29T07:44:22.306Z,98127.22
2022-07-29T07:45:26.438Z,98119.97
2022-07-29T07:46:29.534Z,98119.78
2022-07-29T07:47:33.201Z,98125.53
2022-07-29T07:48:37.479Z,98129.00
2022-07-29T07:49:40.746Z,98127.13
2022-07-29T07:50:45.082Z,98122.34
2022-07-29T07:51:50.648Z,98128.81
2022-07-29T07:52:59.087Z,98131.47
2022-07-29T07:54:02.078Z,98128.81
2022-07-29T07:55:06.111Z,98128.81
2022-07-29T07:56:11.699Z,98123.34
2022-07-29T07:57:16.469Z,98130.44
2022-07-29T07:58:19.854Z,98129.03
2022-07-29T07:59:22.913Z,98124.75
2022-07-29T08:00:25.977Z,98128.09
2022-07-29T08:01:29.238Z,98130.19
2022-07-29T08:02:51.836Z,98130.41
2022-07-29T08:03:54.885Z,98124.06
2022-07-29T08:04:57.810Z,98126.16
2022-07-29T08:06:00.900Z,98128.97
2022-07-29T08:07:04.099Z,98123.25
2022-07-29T08:08:07.969Z,98120.41
2022-07-29T08:09:28.134Z,98126.19
2022-07-29T08:10:50.947Z,98124.25
2022-07-29T08:11:54.081Z,98128.47
2022-07-29T08:12:57.020Z,98119.25
2022-07-29T08:14:00.129Z,98126.28
2022-07-29T08:15:03.624Z,98122.81
2022-07-29T08:16:16.795Z,98122.09
2022-07-29T08:17:19.935Z,98120.03
2022-07-29T08:18:22.963Z,98132.78
2022-07-29T08:19:26.191Z,98123.50
2022-07-29T08:20:29.180Z,98119.28
2022-07-29T08:21:32.299Z,98128.53
2022-07-29T08:22:35.461Z,98118.66
2022-07-29T08:23:51.536Z,98119.34
2022-07-29T08:24:57.685Z,98117.22
2022-07-29T08:26:00.631Z,98123.63
2022-07-29T08:27:03.762Z,98117.94
2022-07-29T08:28:08.321Z,98117.87
2022-07-29T08:29:12.105Z,98119.91
2022-07-29T08:30:15.078Z,98118.47
2022-07-29T08:31:19.082Z,98117.87
2022-07-29T08:32:50.786Z,98120.75
2022-07-29T08:33:49.102Z,98113.72
2022-07-29T08:34:52.005Z,98121.44
2022-07-29T08:35:54.905Z,98122.03
2022-07-29T08:36:58.417Z,98116.47
2022-07-29T08:38:01.322Z,98116.47
2022-07-29T08:39:06.135Z,98124.28
2022-07-29T08:40:09.443Z,98112.97
2022-07-29T08:41:12.844Z,98114.25
2022-07-29T08:42:17.988Z,98120.72
2022-07-29T08:43:21.095Z,98112.25
2022-07-29T08:44:31.036Z,98117.81
2022-07-29T08:45:51.613Z,98117.03
2022-07-29T08:46:58.362Z,98121.84
2022-07-29T08:48:01.888Z,98117.50
2022-07-29T08:49:08.372Z,98114.09
2022-07-29T08:50:12.367Z,98120.53
2022-07-29T08:51:21.031Z,98111.19
2022-07-29T08:52:27.431Z,98116.66
2022-07-29T08:53:30.526Z,98108.22
2022-07-29T08:54:33.662Z,98114.31
2022-07-29T08:55:43.045Z,98115.72
2022-07-29T08:56:50.946Z,98109.97
2022-07-29T08:57:57.321Z,98107.84
2022-07-29T08:59:05.388Z,98107.94
2022-07-29T09:00:11.467Z,98114.72
2022-07-29T09:01:22.304Z,98105.41
2022-07-29T09:02:29.889Z,98114.22
2022-07-29T09:03:33.943Z,98108.16
2022-07-29T09:04:38.192Z,98108.22
2022-07-29T09:05:47.744Z,98108.97
2022-07-29T09:06:56.050Z,98111.00
2022-07-29T09:07:59.108Z,98113.13
2022-07-29T09:09:02.304Z,98112.00
2022-07-29T09:10:10.082Z,98113.09
2022-07-29T09:11:14.835Z,98107.97
2022-07-29T09:12:29.365Z,98112.22
2022-07-29T09:13:37.184Z,98103.50
2022-07-29T09:14:41.209Z,98106.84
2022-07-29T09:15:49.063Z,98107.31
2022-07-29T09:16:57.518Z,98114.25
2022-07-29T09:18:05.098Z,98109.34
2022-07-29T09:19:21.689Z,98104.94
2022-07-29T09:20:24.861Z,98106.62
2022-07-29T09:22:00.353Z,98107.06
2022-07-29T09:23:09.504Z,98094.28
2022-07-29T09:24:14.984Z,98112.69
2022-07-29T09:25:34.962Z,98103.16
2022-07-29T09:26:41.759Z,98100.63
2022-07-29T09:27:52.088Z,98099.03
2022-07-29T09:28:55.001Z,98103.44
2022-07-29T09:30:11.759Z,98104.72
2022-07-29T09:31:15.263Z,98096.56
2022-07-29T09:32:18.389Z,98097.88
2022-07-29T09:33:23.317Z,98103.16
2022-07-29T09:34:29.743Z,98099.66
2022-07-29T09:35:32.816Z,98098.06
2022-07-29T09:36:47.252Z,98099.22
2022-07-29T09:37:50.791Z,98104.06
2022-07-29T09:39:01.822Z,98093.63
2022-07-29T09:40:17.205Z,98087.69
2022-07-29T09:41:20.362Z,98091.78
2022-07-29T09:42:30.922Z,98080.37
2022-07-29T09:43:35.091Z,98091.47
2022-07-29T09:44:51.858Z,98084.44
2022-07-29T09:45:55.376Z,98099.78
2022-07-29T09:47:07.368Z,98105.09
2022-07-29T09:48:21.267Z,98092.53
2022-07-29T09:49:24.249Z,98099.59
2022-07-29T09:50:42.415Z,98089.69
2022-07-29T09:51:45.503Z,98089.97
2022-07-29T09:52:51.203Z,98076.06
2022-07-29T09:53:54.353Z,98078.00
2022-07-29T09:55:08.755Z,98079.84
2022-07-29T09:56:12.051Z,98083.09
2022-07-29T09:57:30.805Z,98081.75
2022-07-29T09:58:35.043Z,98079.84
2022-07-29T09:59:50.551Z,98080.37
2022-07-29T10:00:56.094Z,98074.13
2022-07-29T10:02:02.261Z,98073.88
2022-07-29T10:03:05.325Z,98078.38
2022-07-29T10:04:08.326Z,98076.00
2022-07-29T10:05:37.679Z,98081.72
2022-07-29T10:07:04.745Z,98092.22
2022-07-29T10:08:09.444Z,98079.94
2022-07-29T10:09:12.672Z,98081.84
2022-07-29T10:10:27.319Z,98072.81
2022-07-29T10:11:37.821Z,98074.97
2022-07-29T10:12:57.546Z,98070.03
2022-07-29T10:14:04.986Z,98075.94
2022-07-29T10:15:08.403Z,98073.00
2022-07-29T10:16:12.306Z,98072.66
2022-07-29T10:17:18.564Z,98073.00
2022-07-29T10:18:21.718Z,98083.28
2022-07-29T10:19:25.888Z,98080.56
2022-07-29T10:20:33.411Z,98072.81
2022-07-29T10:21:39.162Z,98079.28
2022-07-29T10:22:52.872Z,98075.13
2022-07-29T10:23:59.545Z,98069.69
2022-07-29T10:25:04.803Z,98074.91
2022-07-29T10:26:11.828Z,98075.88
2022-07-29T10:27:15.153Z,98080.25
2022-07-29T10:28:18.156Z,98078.03
2022-07-29T10:29:21.466Z,98069.09
2022-07-29T10:30:26.741Z,98070.00
2022-07-29T10:31:49.862Z,98067.19
2022-07-29T10:33:16.034Z,98065.22
2022-07-29T10:34:36.038Z,98080.66
2022-07-29T10:36:03.955Z,98062.34
2022-07-29T10:37:20.984Z,98068.97
2022-07-29T10:38:30.923Z,98073.28
2022-07-29T10:39:51.908Z,98051.59
2022-07-29T10:41:32.037Z,98063.59
2022-07-29T10:42:46.081Z,98051.94
2022-07-29T10:43:52.833Z,98047.78
2022-07-29T10:44:58.185Z,98055.59
2022-07-29T10:46:04.064Z,98055.91
2022-07-29T10:47:27.941Z,98055.78
2022-07-29T10:48:31.435Z,98056.69
2022-07-29T10:49:34.617Z,98053.84
2022-07-29T10:51:06.878Z,98045.06
2022-07-29T10:52:11.685Z,98051.00
2022-07-29T10:53:14.723Z,98049.00
2022-07-29T10:54:19.078Z,98046.09
2022-07-29T10:55:45.873Z,98043.25
2022-07-29T10:56:50.922Z,98044.63
2022-07-29T10:58:20.185Z,98048.59
2022-07-29T10:59:25.732Z,98042.03
2022-07-29T11:00:36.363Z,98039.22
2022-07-29T11:01:39.435Z,98040.34
2022-07-29T11:02:53.197Z,98046.09
2022-07-29T11:03:58.016Z,98040.31
2022-07-29T11:05:04.876Z,98045.44
2022-07-29T11:06:08.801Z,98045.34
2022-07-29T11:07:17.667Z,98048.00
2022-07-29T11:08:28.076Z,98043.00
2022-07-29T11:09:37.810Z,98038.78
2022-07-29T11:10:41.773Z,98036.78
2022-07-29T11:11:58.188Z,98035.59
2022-07-29T11:13:01.803Z,98028.47
2022-07-29T11:14:05.386Z,98032.75
2022-07-29T11:15:18.736Z,98033.75
2022-07-29T11:16:24.956Z,98038.97
2022-07-29T11:19:13.844Z,98034.84
2022-07-29T11:20:49.681Z,98034.91
2022-07-29T11:21:58.316Z,98032.53
2022-07-29T11:23:02.715Z,98026.31
2022-07-29T11:24:18.591Z,98024.72
2022-07-29T11:25:50.203Z,98024.84
2022-07-29T11:27:28.692Z,98021.91
2022-07-29T11:28:32.065Z,98026.69
2022-07-29T11:29:40.536Z,98018.94
2022-07-29T11:30:51.927Z,98015.22
2022-07-29T11:32:10.869Z,98008.34
2022-07-29T11:33:54.731Z,98014.28
2022-07-29T11:35:19.403Z,98011.81
2022-07-29T11:37:10.274Z,98005.16
2022-07-29T11:38:31.766Z,98003.37
2022-07-29T11:39:37.622Z,98003.06
2022-07-29T11:40:42.572Z,97996.50
2022-07-29T11:41:45.729Z,97998.72
2022-07-29T11:42:51.975Z,97993.91
2022-07-29T11:43:58.613Z,97998.06
2022-07-29T11:45:33.420Z,97998.44
2022-07-29T11:46:48.030Z,97994.56
2022-07-29T11:47:54.814Z,97987.66
2022-07-29T11:48:58.203Z,97989.37
2022-07-29T11:50:03.906Z,97985.50
2022-07-29T11:51:13.510Z,97991.72
2022-07-29T11:52:16.689Z,97998.44
2022-07-29T11:53:19.985Z,97986.84
2022-07-29T11:54:27.851Z,97981.41
2022-07-29T11:55:33.933Z,97980.69
2022-07-29T11:56:42.923Z,97989.75
2022-07-29T11:58:04.416Z,97984.38
2022-07-29T11:59:10.594Z,97993.84
2022-07-29T12:00:31.273Z,97992.59
2022-07-29T12:01:34.280Z,97990.31
2022-07-29T12:02:48.642Z,97988.22
2022-07-29T12:04:04.920Z,97985.50
2022-07-29T12:05:14.457Z,97993.62
2022-07-29T12:06:18.478Z,97988.81
2022-07-29T12:07:35.438Z,97987.34
2022-07-29T12:08:44.008Z,97978.09
2022-07-29T12:09:56.949Z,97978.06
2022-07-29T12:11:00.705Z,97985.00
2022-07-29T12:12:05.757Z,97984.72
2022-07-29T12:13:09.167Z,97972.56
2022-07-29T12:14:32.339Z,97981.31
2022-07-29T12:15:46.231Z,97977.03
2022-07-29T12:16:50.515Z,97978.25
2022-07-29T12:17:54.469Z,97975.94
2022-07-29T12:18:59.243Z,97975.16
2022-07-29T12:20:05.078Z,97977.56
2022-07-29T12:21:12.515Z,97978.81
2022-07-29T12:22:27.293Z,97976.34
2022-07-29T12:23:35.116Z,97971.97
2022-07-29T12:24:45.918Z,97969.19
2022-07-29T12:25:55.220Z,97971.72
2022-07-29T12:27:02.388Z,97962.94
2022-07-29T12:28:08.771Z,97972.38
2022-07-29T12:29:20.103Z,97965.97
2022-07-29T12:30:42.588Z,97958.03
2022-07-29T12:31:57.844Z,97958.13
2022-07-29T12:33:01.264Z,97960.09
2022-07-29T12:34:04.324Z,97961.56
2022-07-29T12:35:10.528Z,97954.84
2022-07-29T12:36:17.959Z,97956.97
2022-07-29T12:37:40.945Z,97944.44
2022-07-29T12:38:46.162Z,97950.19
2022-07-29T12:39:49.211Z,97941.91
2022-07-29T12:40:54.253Z,97938.53
2022-07-29T12:42:03.958Z,97940.50
2022-07-29T12:43:10.947Z,97936.78
2022-07-29T12:44:14.082Z,97943.37
2022-07-29T12:45:17.781Z,97938.47
2022-07-29T12:46:20.824Z,97938.75
2022-07-29T12:47:24.269Z,97942.59
2022-07-29T12:48:39.034Z,97925.75
2022-07-29T12:49:42.513Z,97933.16
2022-07-29T12:50:58.761Z,97938.03
2022-07-29T12:52:02.639Z,97940.06
2022-07-29T12:53:13.826Z,97940.12
2022-07-29T12:54:16.991Z,97936.94
2022-07-29T12:55:52.877Z,97930.41
2022-07-29T12:57:01.961Z,97930.97
2022-07-29T12:58:06.358Z,97927.37
2022-07-29T12:59:24.448Z,97936.97
2022-07-29T13:00:31.430Z,97931.25
2022-07-29T13:01:38.357Z,97937.72
2022-07-29T13:02:44.779Z,97934.94
2022-07-29T13:03:56.856Z,97927.06
2022-07-29T13:05:03.153Z,97926.56
2022-07-29T13:06:06.412Z,97928.41
2022-07-29T13:07:10.599Z,97926.19
2022-07-29T13:08:20.130Z,97928.25
2022-07-29T13:09:36.892Z,97927.91
2022-07-29T13:10:39.929Z,97924.00
2022-07-29T13:11:48.357Z,97917.59
2022-07-29T13:13:16.002Z,97925.34
2022-07-29T13:14:38.179Z,97919.00
2022-07-29T13:15:44.861Z,97909.06